sensor_id;sensor_type;location;lat;lon;timestamp;P1;durP1;ratioP1;P2;durP2;ratioP2
20870;SDS011;10595;51.218;3.452;2023-12-07T00:01:41;32.67;;;19.27;;
20870;SDS011;10595;51.218;3.452;2023-12-07T00:04:07;50.07;;;19.57;;
20870;SDS011;10595;51.218;3.452;2023-12-07T00:06:33;38.20;;;18.30;;
20870;SDS011;10595;51.218;3.452;2023-12-07T00:08:59;34.50;;;17.73;;
20870;SDS011;10595;51.218;3.452;2023-12-07T00:11:26;27.60;;;16.10;;
20870;SDS011;10595;51.218;3.452;2023-12-07T00:13:52;27.43;;;15.87;;
20870;SDS011;10595;51.218;3.452;2023-12-07T00:16:18;31.90;;;17.30;;
20870;SDS011;10595;51.218;3.452;2023-12-07T00:18:44;41.77;;;17.30;;
20870;SDS011;10595;51.218;3.452;2023-12-07T00:21:10;29.93;;;16.37;;
20870;SDS011;10595;51.218;3.452;2023-12-07T00:23:36;28.93;;;15.83;;
20870;SDS011;10595;51.218;3.452;2023-12-07T00:26:03;31.20;;;16.73;;
20870;SDS011;10595;51.218;3.452;2023-12-07T00:28:29;30.43;;;15.23;;
20870;SDS011;10595;51.218;3.452;2023-12-07T00:30:56;34.27;;;15.90;;
20870;SDS011;10595;51.218;3.452;2023-12-07T00:33:22;30.13;;;14.33;;
20870;SDS011;10595;51.218;3.452;2023-12-07T00:35:48;41.03;;;13.97;;
20870;SDS011;10595;51.218;3.452;2023-12-07T00:38:14;33.87;;;14.53;;
20870;SDS011;10595;51.218;3.452;2023-12-07T00:40:40;29.40;;;13.87;;
20870;SDS011;10595;51.218;3.452;2023-12-07T00:43:06;27.27;;;13.33;;
20870;SDS011;10595;51.218;3.452;2023-12-07T00:45:32;29.33;;;12.70;;
20870;SDS011;10595;51.218;3.452;2023-12-07T00:47:58;30.07;;;13.17;;
20870;SDS011;10595;51.218;3.452;2023-12-07T00:50:24;31.23;;;13.00;;
20870;SDS011;10595;51.218;3.452;2023-12-07T00:52:50;47.77;;;14.37;;
20870;SDS011;10595;51.218;3.452;2023-12-07T00:55:16;97.70;;;15.60;;
20870;SDS011;10595;51.218;3.452;2023-12-07T00:57:42;37.00;;;14.07;;
20870;SDS011;10595;51.218;3.452;2023-12-07T01:00:08;36.47;;;12.80;;
20870;SDS011;10595;51.218;3.452;2023-12-07T01:02:35;29.63;;;14.30;;
20870;SDS011;10595;51.218;3.452;2023-12-07T01:05:01;37.90;;;13.47;;
20870;SDS011;10595;51.218;3.452;2023-12-07T01:07:27;28.53;;;13.57;;
20870;SDS011;10595;51.218;3.452;2023-12-07T01:09:53;27.70;;;13.47;;
20870;SDS011;10595;51.218;3.452;2023-12-07T01:12:19;47.10;;;15.27;;
20870;SDS011;10595;51.218;3.452;2023-12-07T01:14:45;39.10;;;14.43;;
20870;SDS011;10595;51.218;3.452;2023-12-07T01:17:11;55.73;;;14.73;;
20870;SDS011;10595;51.218;3.452;2023-12-07T01:19:37;89.80;;;17.37;;
20870;SDS011;10595;51.218;3.452;2023-12-07T01:22:03;47.83;;;14.60;;
20870;SDS011;10595;51.218;3.452;2023-12-07T01:24:29;61.93;;;15.53;;
20870;SDS011;10595;51.218;3.452;2023-12-07T01:26:55;58.90;;;15.90;;
20870;SDS011;10595;51.218;3.452;2023-12-07T01:29:21;124.37;;;18.43;;
20870;SDS011;10595;51.218;3.452;2023-12-07T01:31:48;47.97;;;15.77;;
20870;SDS011;10595;51.218;3.452;2023-12-07T01:34:15;47.07;;;15.97;;
20870;SDS011;10595;51.218;3.452;2023-12-07T01:36:41;38.97;;;15.97;;
20870;SDS011;10595;51.218;3.452;2023-12-07T01:39:07;75.17;;;17.03;;
20870;SDS011;10595;51.218;3.452;2023-12-07T01:41:36;78.03;;;16.17;;
20870;SDS011;10595;51.218;3.452;2023-12-07T01:44:02;133.10;;;18.73;;
20870;SDS011;10595;51.218;3.452;2023-12-07T01:46:28;106.73;;;17.63;;
20870;SDS011;10595;51.218;3.452;2023-12-07T01:48:55;63.93;;;15.20;;
20870;SDS011;10595;51.218;3.452;2023-12-07T01:51:21;63.33;;;15.13;;
20870;SDS011;10595;51.218;3.452;2023-12-07T01:53:47;136.73;;;19.67;;
20870;SDS011;10595;51.218;3.452;2023-12-07T01:56:13;38.93;;;15.27;;
20870;SDS011;10595;51.218;3.452;2023-12-07T01:58:41;44.60;;;14.03;;
20870;SDS011;10595;51.218;3.452;2023-12-07T02:01:07;47.97;;;14.47;;
20870;SDS011;10595;51.218;3.452;2023-12-07T02:03:34;42.77;;;14.07;;
20870;SDS011;10595;51.218;3.452;2023-12-07T02:06:00;52.20;;;15.83;;
20870;SDS011;10595;51.218;3.452;2023-12-07T02:08:27;45.13;;;14.70;;
20870;SDS011;10595;51.218;3.452;2023-12-07T02:10:53;83.97;;;17.03;;
20870;SDS011;10595;51.218;3.452;2023-12-07T02:13:20;59.50;;;16.77;;
20870;SDS011;10595;51.218;3.452;2023-12-07T02:15:46;64.03;;;16.97;;
20870;SDS011;10595;51.218;3.452;2023-12-07T02:18:24;54.90;;;16.77;;
20870;SDS011;10595;51.218;3.452;2023-12-07T02:20:55;67.07;;;18.33;;
20870;SDS011;10595;51.218;3.452;2023-12-07T02:23:24;51.87;;;17.17;;
20870;SDS011;10595;51.218;3.452;2023-12-07T02:25:53;43.73;;;16.03;;
20870;SDS011;10595;51.218;3.452;2023-12-07T02:28:20;48.30;;;17.60;;
20870;SDS011;10595;51.218;3.452;2023-12-07T02:30:46;78.50;;;18.77;;
20870;SDS011;10595;51.218;3.452;2023-12-07T02:33:12;43.50;;;18.47;;
20870;SDS011;10595;51.218;3.452;2023-12-07T02:35:39;68.23;;;18.43;;
20870;SDS011;10595;51.218;3.452;2023-12-07T02:38:05;78.73;;;19.37;;
20870;SDS011;10595;51.218;3.452;2023-12-07T02:40:32;50.80;;;18.13;;
20870;SDS011;10595;51.218;3.452;2023-12-07T02:42:58;108.70;;;21.20;;
20870;SDS011;10595;51.218;3.452;2023-12-07T02:45:25;69.80;;;18.77;;
20870;SDS011;10595;51.218;3.452;2023-12-07T02:47:51;104.27;;;21.00;;
20870;SDS011;10595;51.218;3.452;2023-12-07T02:50:18;57.07;;;19.23;;
20870;SDS011;10595;51.218;3.452;2023-12-07T02:52:44;54.63;;;20.77;;
20870;SDS011;10595;51.218;3.452;2023-12-07T02:55:10;70.77;;;19.50;;
20870;SDS011;10595;51.218;3.452;2023-12-07T02:57:36;76.90;;;21.20;;
20870;SDS011;10595;51.218;3.452;2023-12-07T03:00:03;55.17;;;19.63;;
20870;SDS011;10595;51.218;3.452;2023-12-07T03:02:32;84.63;;;23.30;;
20870;SDS011;10595;51.218;3.452;2023-12-07T03:04:58;72.83;;;21.70;;
20870;SDS011;10595;51.218;3.452;2023-12-07T03:07:24;99.27;;;22.93;;
20870;SDS011;10595;51.218;3.452;2023-12-07T03:09:50;125.50;;;25.03;;
20870;SDS011;10595;51.218;3.452;2023-12-07T03:12:16;69.90;;;23.07;;
20870;SDS011;10595;51.218;3.452;2023-12-07T03:14:42;64.93;;;23.00;;
20870;SDS011;10595;51.218;3.452;2023-12-07T03:17:08;78.50;;;23.63;;
20870;SDS011;10595;51.218;3.452;2023-12-07T03:19:38;73.60;;;24.80;;
20870;SDS011;10595;51.218;3.452;2023-12-07T03:22:04;68.73;;;24.73;;
20870;SDS011;10595;51.218;3.452;2023-12-07T03:24:37;63.20;;;24.80;;
20870;SDS011;10595;51.218;3.452;2023-12-07T03:27:04;67.07;;;24.40;;
20870;SDS011;10595;51.218;3.452;2023-12-07T03:29:30;65.47;;;23.37;;
20870;SDS011;10595;51.218;3.452;2023-12-07T03:31:56;74.23;;;25.57;;
20870;SDS011;10595;51.218;3.452;2023-12-07T03:34:22;72.43;;;24.43;;
20870;SDS011;10595;51.218;3.452;2023-12-07T03:36:48;72.77;;;25.17;;
20870;SDS011;10595;51.218;3.452;2023-12-07T03:39:15;71.27;;;24.80;;
20870;SDS011;10595;51.218;3.452;2023-12-07T03:41:41;71.17;;;25.33;;
20870;SDS011;10595;51.218;3.452;2023-12-07T03:44:07;73.10;;;26.43;;
20870;SDS011;10595;51.218;3.452;2023-12-07T03:46:33;68.27;;;24.27;;
20870;SDS011;10595;51.218;3.452;2023-12-07T03:48:59;68.67;;;25.13;;
20870;SDS011;10595;51.218;3.452;2023-12-07T03:51:26;61.47;;;23.87;;
20870;SDS011;10595;51.218;3.452;2023-12-07T03:53:52;69.37;;;23.67;;
20870;SDS011;10595;51.218;3.452;2023-12-07T03:56:25;63.27;;;22.50;;
20870;SDS011;10595;51.218;3.452;2023-12-07T03:58:51;66.10;;;23.50;;
20870;SDS011;10595;51.218;3.452;2023-12-07T04:01:17;63.00;;;23.17;;
20870;SDS011;10595;51.218;3.452;2023-12-07T04:03:43;54.50;;;21.17;;
20870;SDS011;10595;51.218;3.452;2023-12-07T04:06:09;67.03;;;22.60;;
20870;SDS011;10595;51.218;3.452;2023-12-07T04:08:35;58.00;;;22.17;;
20870;SDS011;10595;51.218;3.452;2023-12-07T04:11:01;59.97;;;23.60;;
20870;SDS011;10595;51.218;3.452;2023-12-07T04:13:27;58.33;;;22.47;;
20870;SDS011;10595;51.218;3.452;2023-12-07T04:15:53;56.27;;;21.80;;
20870;SDS011;10595;51.218;3.452;2023-12-07T04:18:19;66.63;;;22.43;;
20870;SDS011;10595;51.218;3.452;2023-12-07T04:20:45;59.23;;;21.93;;
20870;SDS011;10595;51.218;3.452;2023-12-07T04:23:11;55.83;;;20.43;;
20870;SDS011;10595;51.218;3.452;2023-12-07T04:25:37;62.20;;;21.83;;
20870;SDS011;10595;51.218;3.452;2023-12-07T04:28:03;56.50;;;21.23;;
20870;SDS011;10595;51.218;3.452;2023-12-07T04:30:29;66.57;;;22.30;;
20870;SDS011;10595;51.218;3.452;2023-12-07T04:32:55;59.03;;;21.73;;
20870;SDS011;10595;51.218;3.452;2023-12-07T04:35:21;58.17;;;20.30;;
20870;SDS011;10595;51.218;3.452;2023-12-07T04:37:47;57.83;;;22.20;;
20870;SDS011;10595;51.218;3.452;2023-12-07T04:40:13;54.97;;;21.27;;
20870;SDS011;10595;51.218;3.452;2023-12-07T04:42:39;65.23;;;20.80;;
20870;SDS011;10595;51.218;3.452;2023-12-07T04:45:06;58.87;;;22.00;;
20870;SDS011;10595;51.218;3.452;2023-12-07T04:47:32;59.93;;;22.47;;
20870;SDS011;10595;51.218;3.452;2023-12-07T04:49:59;68.10;;;23.33;;
20870;SDS011;10595;51.218;3.452;2023-12-07T04:52:25;67.90;;;22.80;;
20870;SDS011;10595;51.218;3.452;2023-12-07T04:54:50;65.17;;;23.60;;
20870;SDS011;10595;51.218;3.452;2023-12-07T04:57:16;69.97;;;23.80;;
20870;SDS011;10595;51.218;3.452;2023-12-07T04:59:43;66.23;;;23.57;;
20870;SDS011;10595;51.218;3.452;2023-12-07T05:02:13;58.03;;;23.87;;
20870;SDS011;10595;51.218;3.452;2023-12-07T05:04:39;69.00;;;24.57;;
20870;SDS011;10595;51.218;3.452;2023-12-07T05:07:05;72.17;;;25.87;;
20870;SDS011;10595;51.218;3.452;2023-12-07T05:09:31;64.73;;;24.77;;
20870;SDS011;10595;51.218;3.452;2023-12-07T05:11:57;65.00;;;24.80;;
20870;SDS011;10595;51.218;3.452;2023-12-07T05:14:23;69.83;;;25.23;;
20870;SDS011;10595;51.218;3.452;2023-12-07T05:16:49;63.60;;;24.50;;
20870;SDS011;10595;51.218;3.452;2023-12-07T05:19:19;60.37;;;24.23;;
20870;SDS011;10595;51.218;3.452;2023-12-07T05:21:46;61.33;;;24.73;;
20870;SDS011;10595;51.218;3.452;2023-12-07T05:24:12;77.03;;;25.83;;
20870;SDS011;10595;51.218;3.452;2023-12-07T05:26:40;66.80;;;24.17;;
20870;SDS011;10595;51.218;3.452;2023-12-07T05:29:07;59.97;;;24.43;;
20870;SDS011;10595;51.218;3.452;2023-12-07T05:31:33;67.10;;;24.77;;
20870;SDS011;10595;51.218;3.452;2023-12-07T05:33:59;66.40;;;23.83;;
20870;SDS011;10595;51.218;3.452;2023-12-07T05:36:26;69.83;;;24.33;;
20870;SDS011;10595;51.218;3.452;2023-12-07T05:38:52;68.57;;;24.97;;
20870;SDS011;10595;51.218;3.452;2023-12-07T05:41:18;65.57;;;25.30;;
20870;SDS011;10595;51.218;3.452;2023-12-07T05:43:44;71.77;;;26.20;;
20870;SDS011;10595;51.218;3.452;2023-12-07T05:46:10;64.33;;;24.97;;
20870;SDS011;10595;51.218;3.452;2023-12-07T05:48:36;67.47;;;26.10;;
20870;SDS011;10595;51.218;3.452;2023-12-07T05:51:02;57.70;;;24.43;;
20870;SDS011;10595;51.218;3.452;2023-12-07T05:53:29;64.47;;;25.37;;
20870;SDS011;10595;51.218;3.452;2023-12-07T05:55:57;63.03;;;25.97;;
20870;SDS011;10595;51.218;3.452;2023-12-07T05:58:23;58.43;;;24.80;;
20870;SDS011;10595;51.218;3.452;2023-12-07T06:00:49;56.23;;;25.23;;
20870;SDS011;10595;51.218;3.452;2023-12-07T06:03:15;58.33;;;22.87;;
20870;SDS011;10595;51.218;3.452;2023-12-07T06:05:41;56.03;;;24.53;;
20870;SDS011;10595;51.218;3.452;2023-12-07T06:08:10;54.40;;;24.80;;
20870;SDS011;10595;51.218;3.452;2023-12-07T06:10:36;62.07;;;25.27;;
20870;SDS011;10595;51.218;3.452;2023-12-07T06:13:02;59.70;;;25.67;;
20870;SDS011;10595;51.218;3.452;2023-12-07T06:15:28;59.73;;;24.30;;
20870;SDS011;10595;51.218;3.452;2023-12-07T06:17:54;58.77;;;24.60;;
20870;SDS011;10595;51.218;3.452;2023-12-07T06:20:22;60.17;;;25.43;;
20870;SDS011;10595;51.218;3.452;2023-12-07T06:22:48;57.63;;;24.77;;
20870;SDS011;10595;51.218;3.452;2023-12-07T06:25:14;55.53;;;24.47;;
20870;SDS011;10595;51.218;3.452;2023-12-07T06:27:41;53.93;;;25.37;;
20870;SDS011;10595;51.218;3.452;2023-12-07T06:30:07;51.83;;;26.03;;
20870;SDS011;10595;51.218;3.452;2023-12-07T06:32:33;61.63;;;25.13;;
20870;SDS011;10595;51.218;3.452;2023-12-07T06:35:00;52.37;;;24.40;;
20870;SDS011;10595;51.218;3.452;2023-12-07T06:37:26;55.23;;;25.90;;
20870;SDS011;10595;51.218;3.452;2023-12-07T06:39:52;51.57;;;24.60;;
20870;SDS011;10595;51.218;3.452;2023-12-07T06:42:18;51.60;;;24.33;;
20870;SDS011;10595;51.218;3.452;2023-12-07T06:44:47;53.23;;;23.57;;
20870;SDS011;10595;51.218;3.452;2023-12-07T06:47:16;49.90;;;24.03;;
20870;SDS011;10595;51.218;3.452;2023-12-07T06:49:43;50.10;;;23.80;;
20870;SDS011;10595;51.218;3.452;2023-12-07T06:52:09;42.90;;;22.70;;
20870;SDS011;10595;51.218;3.452;2023-12-07T06:54:36;47.03;;;24.13;;
20870;SDS011;10595;51.218;3.452;2023-12-07T06:57:02;44.13;;;21.73;;
20870;SDS011;10595;51.218;3.452;2023-12-07T06:59:28;44.90;;;22.37;;
20870;SDS011;10595;51.218;3.452;2023-12-07T07:01:54;43.20;;;22.33;;
20870;SDS011;10595;51.218;3.452;2023-12-07T07:04:20;45.87;;;22.83;;
20870;SDS011;10595;51.218;3.452;2023-12-07T07:06:46;46.77;;;21.97;;
20870;SDS011;10595;51.218;3.452;2023-12-07T07:09:12;48.77;;;22.73;;
20870;SDS011;10595;51.218;3.452;2023-12-07T07:11:38;43.27;;;21.53;;
20870;SDS011;10595;51.218;3.452;2023-12-07T07:14:04;46.90;;;22.07;;
20870;SDS011;10595;51.218;3.452;2023-12-07T07:16:30;47.83;;;22.73;;
20870;SDS011;10595;51.218;3.452;2023-12-07T07:18:56;47.60;;;22.40;;
20870;SDS011;10595;51.218;3.452;2023-12-07T07:21:22;48.73;;;24.13;;
20870;SDS011;10595;51.218;3.452;2023-12-07T07:23:48;51.07;;;24.97;;
20870;SDS011;10595;51.218;3.452;2023-12-07T07:26:14;54.33;;;25.50;;
20870;SDS011;10595;51.218;3.452;2023-12-07T07:28:42;54.20;;;25.23;;
20870;SDS011;10595;51.218;3.452;2023-12-07T07:31:08;47.80;;;23.77;;
20870;SDS011;10595;51.218;3.452;2023-12-07T07:33:34;55.17;;;25.47;;
20870;SDS011;10595;51.218;3.452;2023-12-07T07:36:00;57.20;;;25.20;;
20870;SDS011;10595;51.218;3.452;2023-12-07T07:38:26;56.33;;;24.90;;
20870;SDS011;10595;51.218;3.452;2023-12-07T07:40:52;53.90;;;24.53;;
20870;SDS011;10595;51.218;3.452;2023-12-07T07:43:18;48.67;;;24.67;;
20870;SDS011;10595;51.218;3.452;2023-12-07T07:45:44;57.83;;;26.03;;
20870;SDS011;10595;51.218;3.452;2023-12-07T07:48:11;54.43;;;25.07;;
20870;SDS011;10595;51.218;3.452;2023-12-07T07:50:37;51.90;;;23.87;;
20870;SDS011;10595;51.218;3.452;2023-12-07T07:53:03;51.10;;;23.83;;
20870;SDS011;10595;51.218;3.452;2023-12-07T07:55:30;48.37;;;23.43;;
20870;SDS011;10595;51.218;3.452;2023-12-07T07:57:56;56.53;;;23.47;;
20870;SDS011;10595;51.218;3.452;2023-12-07T08:00:22;46.40;;;23.23;;
20870;SDS011;10595;51.218;3.452;2023-12-07T08:02:51;48.63;;;24.03;;
20870;SDS011;10595;51.218;3.452;2023-12-07T08:05:17;46.47;;;23.20;;
20870;SDS011;10595;51.218;3.452;2023-12-07T08:07:43;43.97;;;22.00;;
20870;SDS011;10595;51.218;3.452;2023-12-07T08:10:09;48.27;;;22.57;;
20870;SDS011;10595;51.218;3.452;2023-12-07T08:12:36;49.77;;;22.33;;
20870;SDS011;10595;51.218;3.452;2023-12-07T08:15:02;45.53;;;22.07;;
20870;SDS011;10595;51.218;3.452;2023-12-07T08:17:28;41.20;;;22.20;;
20870;SDS011;10595;51.218;3.452;2023-12-07T08:19:54;47.87;;;23.30;;
20870;SDS011;10595;51.218;3.452;2023-12-07T08:22:20;43.10;;;22.03;;
20870;SDS011;10595;51.218;3.452;2023-12-07T08:24:47;44.07;;;22.40;;
20870;SDS011;10595;51.218;3.452;2023-12-07T08:27:12;49.67;;;23.13;;
20870;SDS011;10595;51.218;3.452;2023-12-07T08:29:39;44.30;;;23.10;;
20870;SDS011;10595;51.218;3.452;2023-12-07T08:32:05;46.67;;;23.77;;
20870;SDS011;10595;51.218;3.452;2023-12-07T08:34:31;44.17;;;22.97;;
20870;SDS011;10595;51.218;3.452;2023-12-07T08:36:57;44.13;;;22.87;;
20870;SDS011;10595;51.218;3.452;2023-12-07T08:39:23;41.87;;;22.33;;
20870;SDS011;10595;51.218;3.452;2023-12-07T08:41:50;44.00;;;21.77;;
20870;SDS011;10595;51.218;3.452;2023-12-07T08:44:16;44.43;;;21.13;;
20870;SDS011;10595;51.218;3.452;2023-12-07T08:46:42;41.83;;;21.77;;
20870;SDS011;10595;51.218;3.452;2023-12-07T08:49:10;42.27;;;22.07;;
20870;SDS011;10595;51.218;3.452;2023-12-07T08:51:36;44.47;;;20.63;;
20870;SDS011;10595;51.218;3.452;2023-12-07T08:54:02;43.77;;;20.20;;
20870;SDS011;10595;51.218;3.452;2023-12-07T08:56:28;39.67;;;20.90;;
20870;SDS011;10595;51.218;3.452;2023-12-07T08:58:54;40.73;;;20.90;;
20870;SDS011;10595;51.218;3.452;2023-12-07T09:01:20;36.27;;;19.90;;
20870;SDS011;10595;51.218;3.452;2023-12-07T09:03:46;36.40;;;20.40;;
20870;SDS011;10595;51.218;3.452;2023-12-07T09:06:12;42.10;;;20.27;;
20870;SDS011;10595;51.218;3.452;2023-12-07T09:08:38;39.40;;;20.23;;
20870;SDS011;10595;51.218;3.452;2023-12-07T09:11:04;38.40;;;19.77;;
20870;SDS011;10595;51.218;3.452;2023-12-07T09:13:30;38.07;;;19.90;;
20870;SDS011;10595;51.218;3.452;2023-12-07T09:15:56;40.67;;;19.00;;
20870;SDS011;10595;51.218;3.452;2023-12-07T09:18:22;40.83;;;20.70;;
20870;SDS011;10595;51.218;3.452;2023-12-07T09:20:48;39.27;;;19.03;;
20870;SDS011;10595;51.218;3.452;2023-12-07T09:23:15;39.87;;;20.30;;
20870;SDS011;10595;51.218;3.452;2023-12-07T09:25:41;39.43;;;20.57;;
20870;SDS011;10595;51.218;3.452;2023-12-07T09:28:08;42.07;;;20.57;;
20870;SDS011;10595;51.218;3.452;2023-12-07T09:30:34;37.17;;;20.13;;
20870;SDS011;10595;51.218;3.452;2023-12-07T09:33:00;36.40;;;19.40;;
20870;SDS011;10595;51.218;3.452;2023-12-07T09:35:29;41.60;;;19.90;;
20870;SDS011;10595;51.218;3.452;2023-12-07T09:37:56;36.40;;;19.57;;
20870;SDS011;10595;51.218;3.452;2023-12-07T09:40:22;38.20;;;19.60;;
20870;SDS011;10595;51.218;3.452;2023-12-07T09:42:49;38.33;;;18.97;;
20870;SDS011;10595;51.218;3.452;2023-12-07T09:45:16;34.90;;;17.83;;
20870;SDS011;10595;51.218;3.452;2023-12-07T09:47:46;34.27;;;18.33;;
20870;SDS011;10595;51.218;3.452;2023-12-07T09:50:13;35.23;;;18.73;;
20870;SDS011;10595;51.218;3.452;2023-12-07T09:52:41;37.17;;;18.13;;
20870;SDS011;10595;51.218;3.452;2023-12-07T09:55:08;27.90;;;16.97;;
20870;SDS011;10595;51.218;3.452;2023-12-07T09:57:36;32.20;;;17.20;;
20870;SDS011;10595;51.218;3.452;2023-12-07T10:00:03;34.00;;;17.40;;
20870;SDS011;10595;51.218;3.452;2023-12-07T10:02:29;30.87;;;17.93;;
20870;SDS011;10595;51.218;3.452;2023-12-07T10:05:05;33.90;;;18.20;;
20870;SDS011;10595;51.218;3.452;2023-12-07T10:07:32;32.87;;;18.23;;
20870;SDS011;10595;51.218;3.452;2023-12-07T10:10:00;34.47;;;17.27;;
20870;SDS011;10595;51.218;3.452;2023-12-07T10:12:27;32.40;;;18.07;;
20870;SDS011;10595;51.218;3.452;2023-12-07T10:14:53;32.63;;;18.20;;
20870;SDS011;10595;51.218;3.452;2023-12-07T10:17:19;30.90;;;18.60;;
20870;SDS011;10595;51.218;3.452;2023-12-07T10:19:45;27.83;;;16.23;;
20870;SDS011;10595;51.218;3.452;2023-12-07T10:22:14;29.60;;;16.50;;
20870;SDS011;10595;51.218;3.452;2023-12-07T10:24:41;29.23;;;16.50;;
20870;SDS011;10595;51.218;3.452;2023-12-07T10:27:08;29.57;;;17.47;;
20870;SDS011;10595;51.218;3.452;2023-12-07T10:29:37;27.30;;;15.77;;
20870;SDS011;10595;51.218;3.452;2023-12-07T10:32:03;26.97;;;15.67;;
20870;SDS011;10595;51.218;3.452;2023-12-07T10:34:30;30.70;;;16.40;;
20870;SDS011;10595;51.218;3.452;2023-12-07T10:36:58;28.50;;;16.23;;
20870;SDS011;10595;51.218;3.452;2023-12-07T10:39:24;28.77;;;16.37;;
20870;SDS011;10595;51.218;3.452;2023-12-07T10:41:52;27.07;;;16.03;;
20870;SDS011;10595;51.218;3.452;2023-12-07T10:44:21;30.03;;;16.63;;
20870;SDS011;10595;51.218;3.452;2023-12-07T10:46:47;29.63;;;16.63;;
20870;SDS011;10595;51.218;3.452;2023-12-07T10:49:15;28.73;;;16.30;;
20870;SDS011;10595;51.218;3.452;2023-12-07T10:54:16;28.57;;;15.33;;
20870;SDS011;10595;51.218;3.452;2023-12-07T10:56:44;29.37;;;16.47;;
20870;SDS011;10595;51.218;3.452;2023-12-07T10:59:11;31.80;;;17.37;;
20870;SDS011;10595;51.218;3.452;2023-12-07T11:01:41;28.60;;;15.87;;
20870;SDS011;10595;51.218;3.452;2023-12-07T11:04:08;37.83;;;16.07;;
20870;SDS011;10595;51.218;3.452;2023-12-07T11:06:36;27.23;;;16.23;;
20870;SDS011;10595;51.218;3.452;2023-12-07T11:09:04;24.83;;;16.23;;
20870;SDS011;10595;51.218;3.452;2023-12-07T11:11:42;25.20;;;15.13;;
20870;SDS011;10595;51.218;3.452;2023-12-07T11:14:09;24.90;;;15.40;;
20870;SDS011;10595;51.218;3.452;2023-12-07T11:16:43;23.97;;;14.80;;
20870;SDS011;10595;51.218;3.452;2023-12-07T11:21:53;28.63;;;14.93;;
20870;SDS011;10595;51.218;3.452;2023-12-07T11:24:19;24.50;;;14.47;;
20870;SDS011;10595;51.218;3.452;2023-12-07T11:26:46;22.67;;;15.10;;
20870;SDS011;10595;51.218;3.452;2023-12-07T11:29:12;22.30;;;14.20;;
20870;SDS011;10595;51.218;3.452;2023-12-07T11:31:38;26.67;;;14.50;;
20870;SDS011;10595;51.218;3.452;2023-12-07T11:34:07;24.37;;;14.07;;
20870;SDS011;10595;51.218;3.452;2023-12-07T11:36:38;21.57;;;13.80;;
20870;SDS011;10595;51.218;3.452;2023-12-07T11:41:39;25.73;;;13.87;;
20870;SDS011;10595;51.218;3.452;2023-12-07T11:44:09;27.30;;;14.37;;
20870;SDS011;10595;51.218;3.452;2023-12-07T11:46:36;23.40;;;13.60;;
20870;SDS011;10595;51.218;3.452;2023-12-07T11:49:02;22.03;;;13.53;;
20870;SDS011;10595;51.218;3.452;2023-12-07T11:51:30;23.40;;;12.97;;
20870;SDS011;10595;51.218;3.452;2023-12-07T11:53:56;26.53;;;13.80;;
20870;SDS011;10595;51.218;3.452;2023-12-07T11:56:22;23.03;;;13.27;;
20870;SDS011;10595;51.218;3.452;2023-12-07T11:58:48;28.13;;;14.10;;
20870;SDS011;10595;51.218;3.452;2023-12-07T12:01:16;21.90;;;13.00;;
20870;SDS011;10595;51.218;3.452;2023-12-07T12:03:42;24.30;;;13.03;;
20870;SDS011;10595;51.218;3.452;2023-12-07T12:06:08;21.90;;;12.77;;
20870;SDS011;10595;51.218;3.452;2023-12-07T12:08:36;23.10;;;12.57;;
20870;SDS011;10595;51.218;3.452;2023-12-07T12:11:02;18.77;;;11.90;;
20870;SDS011;10595;51.218;3.452;2023-12-07T12:13:29;24.23;;;13.07;;
20870;SDS011;10595;51.218;3.452;2023-12-07T12:15:58;19.87;;;11.20;;
20870;SDS011;10595;51.218;3.452;2023-12-07T12:18:24;19.43;;;12.37;;
20870;SDS011;10595;51.218;3.452;2023-12-07T12:20:51;20.70;;;11.37;;
20870;SDS011;10595;51.218;3.452;2023-12-07T12:23:17;21.00;;;11.50;;
20870;SDS011;10595;51.218;3.452;2023-12-07T12:25:44;17.40;;;10.63;;
20870;SDS011;10595;51.218;3.452;2023-12-07T12:28:10;17.30;;;11.47;;
20870;SDS011;10595;51.218;3.452;2023-12-07T12:30:37;17.47;;;11.43;;
20870;SDS011;10595;51.218;3.452;2023-12-07T12:33:03;21.90;;;11.63;;
20870;SDS011;10595;51.218;3.452;2023-12-07T12:35:29;18.73;;;10.97;;
20870;SDS011;10595;51.218;3.452;2023-12-07T12:37:57;20.30;;;11.07;;
20870;SDS011;10595;51.218;3.452;2023-12-07T12:40:23;19.57;;;11.57;;
20870;SDS011;10595;51.218;3.452;2023-12-07T12:42:50;17.97;;;11.03;;
20870;SDS011;10595;51.218;3.452;2023-12-07T12:45:16;18.40;;;10.53;;
20870;SDS011;10595;51.218;3.452;2023-12-07T12:47:46;18.23;;;10.97;;
20870;SDS011;10595;51.218;3.452;2023-12-07T12:50:31;20.17;;;10.77;;
20870;SDS011;10595;51.218;3.452;2023-12-07T12:52:59;18.07;;;10.60;;
20870;SDS011;10595;51.218;3.452;2023-12-07T12:55:28;17.37;;;10.37;;
20870;SDS011;10595;51.218;3.452;2023-12-07T12:57:56;15.50;;;10.17;;
20870;SDS011;10595;51.218;3.452;2023-12-07T13:00:24;17.97;;;10.23;;
20870;SDS011;10595;51.218;3.452;2023-12-07T13:02:50;14.80;;;10.27;;
20870;SDS011;10595;51.218;3.452;2023-12-07T13:05:16;15.23;;;9.20;;
20870;SDS011;10595;51.218;3.452;2023-12-07T13:07:43;16.03;;;9.53;;
20870;SDS011;10595;51.218;3.452;2023-12-07T13:10:09;16.63;;;9.90;;
20870;SDS011;10595;51.218;3.452;2023-12-07T13:12:35;14.60;;;9.67;;
20870;SDS011;10595;51.218;3.452;2023-12-07T13:15:02;13.57;;;9.47;;
20870;SDS011;10595;51.218;3.452;2023-12-07T13:17:28;15.10;;;10.00;;
20870;SDS011;10595;51.218;3.452;2023-12-07T13:19:54;18.17;;;9.50;;
20870;SDS011;10595;51.218;3.452;2023-12-07T13:22:20;17.27;;;10.37;;
20870;SDS011;10595;51.218;3.452;2023-12-07T13:24:47;17.07;;;9.87;;
20870;SDS011;10595;51.218;3.452;2023-12-07T13:27:13;15.73;;;8.30;;
20870;SDS011;10595;51.218;3.452;2023-12-07T13:29:40;18.00;;;8.93;;
20870;SDS011;10595;51.218;3.452;2023-12-07T13:32:06;14.60;;;8.97;;
20870;SDS011;10595;51.218;3.452;2023-12-07T13:34:33;16.83;;;9.67;;
20870;SDS011;10595;51.218;3.452;2023-12-07T13:36:59;15.50;;;8.70;;
20870;SDS011;10595;51.218;3.452;2023-12-07T13:39:25;14.77;;;9.00;;
20870;SDS011;10595;51.218;3.452;2023-12-07T13:41:55;15.53;;;9.17;;
20870;SDS011;10595;51.218;3.452;2023-12-07T13:44:21;16.27;;;9.03;;
20870;SDS011;10595;51.218;3.452;2023-12-07T13:46:49;12.57;;;7.87;;
20870;SDS011;10595;51.218;3.452;2023-12-07T13:49:15;14.50;;;8.10;;
20870;SDS011;10595;51.218;3.452;2023-12-07T13:51:41;12.43;;;7.77;;
20870;SDS011;10595;51.218;3.452;2023-12-07T13:54:08;16.37;;;9.10;;
20870;SDS011;10595;51.218;3.452;2023-12-07T13:56:34;13.00;;;7.60;;
20870;SDS011;10595;51.218;3.452;2023-12-07T13:59:00;11.93;;;7.97;;
20870;SDS011;10595;51.218;3.452;2023-12-07T14:01:27;13.40;;;7.47;;
20870;SDS011;10595;51.218;3.452;2023-12-07T14:03:53;11.97;;;8.20;;
20870;SDS011;10595;51.218;3.452;2023-12-07T14:06:24;14.37;;;8.03;;
20870;SDS011;10595;51.218;3.452;2023-12-07T14:08:50;13.13;;;7.20;;
20870;SDS011;10595;51.218;3.452;2023-12-07T14:11:17;13.97;;;7.57;;
20870;SDS011;10595;51.218;3.452;2023-12-07T14:13:43;11.83;;;7.13;;
20870;SDS011;10595;51.218;3.452;2023-12-07T14:16:11;12.03;;;7.87;;
20870;SDS011;10595;51.218;3.452;2023-12-07T14:18:37;14.93;;;6.77;;
20870;SDS011;10595;51.218;3.452;2023-12-07T14:21:03;16.27;;;7.40;;
20870;SDS011;10595;51.218;3.452;2023-12-07T14:23:29;14.70;;;7.40;;
20870;SDS011;10595;51.218;3.452;2023-12-07T14:25:56;13.83;;;8.33;;
20870;SDS011;10595;51.218;3.452;2023-12-07T14:28:25;12.40;;;7.20;;